Terminal Aerodrome Forecast
Issued by NWS Jackson, KY

Home | Current Version | Previous Version | Text Only | Print | Product List | Glossary On
Versions: 1 2 3 4 5 6 7 8 9 10 11 12 13 14 15 16 17 18 19 20 21 22 23 24 25 26 27 28 29 30 31 32 33 34 35 36 37
000
FTUS43 KJKL 040521
TAFJKL
TAF
KJKL 040521Z 0406/0506 VRB03KT 1/2SM FG OVC002
      TEMPO 0406/0410 3SM BR SCT005 OVC010
     FM041300 VRB03KT 5SM BR BKN010
     FM041500 VRB03KT P6SM BKN025
     FM041700 VRB03KT P6SM BKN035 BKN090=

USA.gov is the U.S. government's official web portal to all federal, state and local government web resources and services.